Weather at Kuala Kahaba Airport

Public forecast

Using degrees Celsius for public forecast. Weather courtesy of forecast.io.

Closest aviation weather report (METAR) to Kuala Kahaba Airport

Closest report is Kota Kinabalu International Airport, 49.4 nm (91.4 km) N.

2024/05/26 17:10 (retrieved 21 minutes ago)

WBKK 261710Z 18007KT 150V210 7000 -TSRA FEW013 FEW016CB SCT035 25/25 Q1010 RETSRA NOSIG

Closest aviation forecast (TAF) to Kuala Kahaba Airport

Closest forecast is Kota Kinabalu International Airport, 49.4 nm (91.4 km) N.

2024/05/26 15:33 Ammendment (retrieved 2 hours ago)

TAF AMD WBKK 261511Z 2615/2712 13006KT 9999 FEW014 TEMPO 2615/2619 3000 +TSRA FEW010 FEW016CB SCT035 BECMG 2700/2702 23005KT PROB30 TEMPO 2707/2710 4000 TSRA FEW010 FEW016CB SCT035